createdAt,value
2023-01-21T00:01:03.835Z,50.35
2023-01-21T00:03:30.767Z,55.17
2023-01-21T00:06:00.365Z,59.80
2023-01-21T00:08:27.829Z,58.75
2023-01-21T00:10:55.027Z,61.10
2023-01-21T00:13:22.276Z,61.03
2023-01-21T00:15:49.070Z,62.78
2023-01-21T00:18:15.831Z,57.00
2023-01-21T00:20:42.471Z,64.00
2023-01-21T00:23:10.724Z,59.03
2023-01-21T00:25:37.325Z,53.15
2023-01-21T00:28:04.082Z,56.78
2023-01-21T00:30:30.785Z,53.40
2023-01-21T00:32:57.489Z,56.83
2023-01-21T00:35:24.149Z,57.50
2023-01-21T00:37:54.088Z,62.55
2023-01-21T00:40:21.079Z,51.08
2023-01-21T00:42:47.758Z,55.58
2023-01-21T00:45:14.454Z,52.92
2023-01-21T00:47:41.101Z,52.17
2023-01-21T00:50:08.913Z,53.55
2023-01-21T00:52:35.804Z,53.40
2023-01-21T00:55:02.817Z,53.88
2023-01-21T00:57:29.473Z,52.00
2023-01-21T00:59:56.288Z,56.00
2023-01-21T01:02:22.946Z,54.42
2023-01-21T01:04:49.645Z,51.13
2023-01-21T01:07:16.403Z,51.03
2023-01-21T01:09:43.184Z,52.72
2023-01-21T01:12:09.792Z,55.03
2023-01-21T01:14:36.595Z,49.35
2023-01-21T01:17:03.360Z,52.13
2023-01-21T01:19:30.065Z,51.58
2023-01-21T01:21:56.807Z,51.42
2023-01-21T01:24:23.411Z,48.75
2023-01-21T01:26:50.046Z,50.55
2023-01-21T01:29:18.150Z,58.15
2023-01-21T01:31:44.955Z,52.55
2023-01-21T01:34:11.598Z,51.38
2023-01-21T01:36:38.213Z,57.88
2023-01-21T01:39:05.494Z,53.97
2023-01-21T01:41:34.824Z,49.83
2023-01-21T01:44:04.792Z,49.63
2023-01-21T01:46:34.165Z,51.28
2023-01-21T01:49:15.513Z,55.30
2023-01-21T01:51:53.365Z,55.92
2023-01-21T01:54:30.764Z,57.45
2023-01-21T01:57:02.121Z,52.65
2023-01-21T01:59:30.601Z,53.58
2023-01-21T02:02:01.004Z,52.63
2023-01-21T02:04:33.348Z,63.33
2023-01-21T02:07:00.639Z,58.70
2023-01-21T02:09:29.793Z,51.38
2023-01-21T02:11:58.923Z,57.58
2023-01-21T02:14:26.682Z,58.47
2023-01-21T02:17:17.452Z,53.30
2023-01-21T02:20:14.987Z,56.97
2023-01-21T02:22:55.991Z,51.13
2023-01-21T02:25:44.887Z,54.47
2023-01-21T02:29:06.499Z,55.28
2023-01-21T02:31:59.181Z,55.65
2023-01-21T02:34:56.482Z,56.10
2023-01-21T02:37:41.495Z,57.55
2023-01-21T02:40:37.157Z,60.33
2023-01-21T02:43:22.905Z,50.95
2023-01-21T02:45:55.075Z,53.70
2023-01-21T02:48:29.015Z,56.90
2023-01-21T02:50:55.988Z,61.22
2023-01-21T02:53:31.523Z,57.55
2023-01-21T02:56:12.773Z,55.25
2023-01-21T02:58:49.867Z,56.53
2023-01-21T03:01:40.179Z,65.88
2023-01-21T03:04:38.188Z,61.75
2023-01-21T03:07:28.483Z,50.05
2023-01-21T03:10:05.701Z,57.78
2023-01-21T03:12:35.456Z,55.50
2023-01-21T03:15:23.575Z,56.42
2023-01-21T03:18:01.216Z,56.28
2023-01-21T03:20:34.180Z,55.10
2023-01-21T03:23:23.691Z,54.83
2023-01-21T03:25:50.947Z,56.55
2023-01-21T03:28:22.837Z,60.30
2023-01-21T03:30:57.342Z,60.47
2023-01-21T03:33:25.819Z,57.50
2023-01-21T03:35:55.335Z,55.80
2023-01-21T03:38:31.429Z,61.65
2023-01-21T03:41:11.889Z,59.28
2023-01-21T03:43:39.526Z,53.42
2023-01-21T03:46:21.740Z,56.63
2023-01-21T03:48:50.380Z,57.15
2023-01-21T03:51:22.673Z,59.25
2023-01-21T03:53:56.547Z,67.97
2023-01-21T03:56:24.999Z,60.30
2023-01-21T03:58:51.758Z,65.00
2023-01-21T04:01:18.883Z,63.67
2023-01-21T04:03:45.853Z,61.20
2023-01-21T04:06:18.124Z,62.80
2023-01-21T04:08:45.092Z,69.07
2023-01-21T04:11:11.964Z,66.85
2023-01-21T04:13:38.889Z,72.15
2023-01-21T04:16:06.217Z,76.38
2023-01-21T04:18:32.896Z,71.95
2023-01-21T04:20:59.802Z,69.18
2023-01-21T04:23:26.409Z,66.47
2023-01-21T04:25:53.453Z,71.00
2023-01-21T04:28:20.287Z,76.97
2023-01-21T04:30:48.030Z,76.82
2023-01-21T04:33:15.050Z,72.70
2023-01-21T04:35:41.881Z,77.95
2023-01-21T04:38:08.527Z,79.28
2023-01-21T04:40:35.177Z,87.35
2023-01-21T04:43:01.809Z,75.43
2023-01-21T04:45:28.645Z,85.10
2023-01-21T04:47:55.278Z,75.90
2023-01-21T04:50:21.976Z,74.78
2023-01-21T04:52:48.733Z,84.15
2023-01-21T04:55:15.492Z,81.85
2023-01-21T04:57:42.414Z,79.20
2023-01-21T05:00:09.668Z,85.00
2023-01-21T05:02:36.350Z,75.80
2023-01-21T05:05:03.209Z,84.05
2023-01-21T05:07:29.845Z,74.32
2023-01-21T05:09:56.572Z,73.30
2023-01-21T05:12:23.252Z,79.30
2023-01-21T05:14:53.580Z,74.35
2023-01-21T05:17:21.229Z,79.95
2023-01-21T05:19:47.837Z,76.20
2023-01-21T05:22:14.462Z,76.00
2023-01-21T05:24:41.084Z,82.60
2023-01-21T05:27:07.729Z,76.30
2023-01-21T05:29:34.373Z,69.10
2023-01-21T05:32:01.222Z,73.25
2023-01-21T05:34:27.923Z,81.35
2023-01-21T05:36:54.517Z,76.80
2023-01-21T05:39:21.255Z,85.43
2023-01-21T05:41:47.935Z,75.00
2023-01-21T05:44:17.383Z,77.78
2023-01-21T05:46:44.357Z,76.65
2023-01-21T05:49:10.981Z,78.35
2023-01-21T05:51:37.854Z,78.80
2023-01-21T05:54:04.659Z,81.22
2023-01-21T05:56:31.340Z,81.07
2023-01-21T05:58:57.971Z,76.15
2023-01-21T06:01:24.979Z,74.07
2023-01-21T06:03:51.807Z,76.13
2023-01-21T06:06:18.528Z,78.80
2023-01-21T06:08:45.193Z,75.60
2023-01-21T06:11:11.828Z,83.38
2023-01-21T06:13:38.483Z,75.60
2023-01-21T06:16:05.441Z,79.95
2023-01-21T06:18:32.191Z,67.22
2023-01-21T06:21:00.348Z,82.03
2023-01-21T06:23:27.350Z,78.00
2023-01-21T06:25:53.998Z,77.03
2023-01-21T06:28:20.678Z,82.97
2023-01-21T06:30:47.724Z,83.75
2023-01-21T06:33:14.597Z,77.00
2023-01-21T06:35:41.296Z,77.45
2023-01-21T06:38:08.001Z,90.00
2023-01-21T06:40:34.745Z,85.60
2023-01-21T06:43:01.497Z,80.63
2023-01-21T06:45:28.362Z,79.75
2023-01-21T06:47:54.966Z,79.15
2023-01-21T06:50:21.974Z,86.97
2023-01-21T06:52:50.729Z,90.88
2023-01-21T06:55:17.595Z,94.78
2023-01-21T06:57:45.256Z,92.03
2023-01-21T07:00:13.107Z,91.65
2023-01-21T07:02:40.043Z,84.10
2023-01-21T07:05:07.192Z,91.18
2023-01-21T07:07:33.888Z,85.97
2023-01-21T07:10:00.858Z,87.85
2023-01-21T07:12:31.616Z,82.20
2023-01-21T07:18:16.506Z,91.10
2023-01-21T07:20:43.530Z,87.80
2023-01-21T07:23:10.718Z,91.00
2023-01-21T07:29:52.944Z,94.35
2023-01-21T07:32:20.794Z,91.90
2023-01-21T07:35:13.123Z,86.32
2023-01-21T07:37:47.707Z,96.40
2023-01-21T07:44:27.254Z,91.28
2023-01-21T07:56:47.816Z,94.97
2023-01-21T08:06:43.670Z,85.88
2023-01-21T08:18:24.253Z,98.70
2023-01-21T08:20:59.068Z,75.70
2023-01-21T08:23:27.719Z,88.97
2023-01-21T08:25:55.392Z,106.30
2023-01-21T08:28:23.062Z,98.82
2023-01-21T08:30:49.808Z,107.18
2023-01-21T08:33:16.549Z,105.75
2023-01-21T08:35:43.303Z,100.57
2023-01-21T08:38:09.991Z,107.70
2023-01-21T08:40:36.632Z,105.45
2023-01-21T08:43:04.718Z,107.63
2023-01-21T08:45:31.613Z,107.68
2023-01-21T08:47:58.407Z,110.78
2023-01-21T08:50:25.556Z,100.82
2023-01-21T08:52:56.043Z,103.60
2023-01-21T08:55:26.618Z,76.43
2023-01-21T08:57:55.543Z,107.77
2023-01-21T09:00:23.743Z,107.68
2023-01-21T09:02:51.810Z,102.28
2023-01-21T09:05:19.752Z,94.60
2023-01-21T09:07:46.990Z,99.93
2023-01-21T09:10:34.480Z,105.80
2023-01-21T09:13:09.455Z,98.03
2023-01-21T09:15:43.770Z,94.72
2023-01-21T09:18:10.524Z,97.22
2023-01-21T09:20:37.813Z,93.63
2023-01-21T09:23:24.135Z,104.90
2023-01-21T09:26:06.326Z,107.47
2023-01-21T09:28:35.726Z,106.38
2023-01-21T09:31:04.858Z,94.75
2023-01-21T09:33:33.052Z,97.68
2023-01-21T09:36:02.446Z,100.93
2023-01-21T09:38:29.701Z,101.05
2023-01-21T09:41:04.052Z,102.78
2023-01-21T09:43:40.393Z,95.85
2023-01-21T09:46:17.679Z,100.95
2023-01-21T09:48:48.949Z,94.95
2023-01-21T09:51:38.920Z,90.85
2023-01-21T09:54:15.293Z,92.35
2023-01-21T09:57:07.773Z,92.60
2023-01-21T09:59:47.870Z,89.20
2023-01-21T10:02:24.970Z,88.85
2023-01-21T10:05:11.738Z,93.38
2023-01-21T10:07:49.003Z,86.05
2023-01-21T10:10:43.397Z,88.05
2023-01-21T10:13:19.227Z,77.95
2023-01-21T10:16:00.978Z,82.20
2023-01-21T10:18:31.303Z,84.28
2023-01-21T10:21:04.815Z,86.88
2023-01-21T10:23:43.019Z,84.93
2023-01-21T10:26:13.279Z,75.20
2023-01-21T10:28:47.537Z,82.35
2023-01-21T10:31:23.225Z,81.45
2023-01-21T10:33:50.296Z,83.35
2023-01-21T10:36:54.533Z,92.03
2023-01-21T10:39:38.532Z,74.43
2023-01-21T10:42:39.691Z,79.97
2023-01-21T10:45:25.393Z,83.03
2023-01-21T10:48:05.685Z,74.72
2023-01-21T10:50:58.636Z,79.68
2023-01-21T10:53:48.923Z,74.05
2023-01-21T10:57:10.221Z,75.30
2023-01-21T10:59:38.566Z,72.93
2023-01-21T11:02:28.526Z,71.38
2023-01-21T11:04:58.165Z,65.57
2023-01-21T11:07:26.456Z,70.10
2023-01-21T11:09:53.241Z,71.15
2023-01-21T11:12:21.368Z,72.18
2023-01-21T11:15:01.843Z,71.25
2023-01-21T11:17:37.669Z,66.25
2023-01-21T11:20:18.808Z,67.53
2023-01-21T11:22:47.379Z,62.75
2023-01-21T11:25:41.483Z,66.45
2023-01-21T11:28:26.249Z,61.83
2023-01-21T11:31:11.217Z,65.82
2023-01-21T11:33:39.398Z,56.05
2023-01-21T11:36:20.720Z,65.38
2023-01-21T11:39:01.315Z,62.00
2023-01-21T11:41:28.381Z,59.60
2023-01-21T11:44:07.672Z,60.47
2023-01-21T11:46:39.295Z,62.85
2023-01-21T11:51:37.728Z,63.97
2023-01-21T11:54:15.004Z,62.65
2023-01-21T11:56:51.706Z,62.03
2023-01-21T11:59:23.773Z,63.63
2023-01-21T12:02:06.367Z,55.88
2023-01-21T12:04:34.493Z,57.03
2023-01-21T12:07:01.638Z,62.65
2023-01-21T12:09:29.176Z,66.75
2023-01-21T12:12:17.203Z,63.08
2023-01-21T12:14:59.355Z,59.17
2023-01-21T12:17:54.161Z,62.70
2023-01-21T12:20:43.981Z,59.03
2023-01-21T12:23:24.095Z,59.35
2023-01-21T12:26:12.320Z,64.30
2023-01-21T12:28:49.671Z,60.63
2023-01-21T12:31:32.794Z,58.35
2023-01-21T12:34:31.380Z,60.50
2023-01-21T12:37:05.385Z,54.50
2023-01-21T12:39:35.955Z,57.97
2023-01-21T12:42:21.619Z,58.55
2023-01-21T12:44:57.061Z,59.42
2023-01-21T12:47:32.737Z,61.65
2023-01-21T12:50:30.820Z,53.10
2023-01-21T12:53:09.476Z,63.88
2023-01-21T12:56:00.115Z,62.53
2023-01-21T12:58:32.056Z,53.53
2023-01-21T13:01:05.069Z,50.85
2023-01-21T13:04:04.418Z,55.92
2023-01-21T13:06:56.610Z,53.33
2023-01-21T13:09:33.140Z,50.72
2023-01-21T13:12:25.563Z,52.42
2023-01-21T13:15:16.679Z,45.22
2023-01-21T13:17:48.176Z,46.83
2023-01-21T13:20:20.536Z,46.92
2023-01-21T13:23:05.647Z,47.20
2023-01-21T13:25:57.315Z,45.50
2023-01-21T13:28:39.016Z,43.63
2023-01-21T13:33:53.264Z,42.40
2023-01-21T13:36:28.782Z,40.17
2023-01-21T13:39:18.004Z,39.50
2023-01-21T13:41:47.949Z,36.92
2023-01-21T13:44:26.629Z,33.80
2023-01-21T13:47:21.350Z,34.60
2023-01-21T13:50:19.277Z,35.55
2023-01-21T13:53:07.751Z,35.22
2023-01-21T13:55:56.514Z,39.00
2023-01-21T13:58:48.546Z,39.35
2023-01-21T14:01:29.742Z,38.45
2023-01-21T14:03:56.388Z,34.13
2023-01-21T14:06:29.342Z,33.13
2023-01-21T14:09:06.412Z,36.10
2023-01-21T14:11:42.697Z,34.40
2023-01-21T14:14:47.488Z,38.85
2023-01-21T14:17:14.072Z,36.63
2023-01-21T14:19:49.679Z,33.17
2023-01-21T14:22:31.117Z,36.63
2023-01-21T14:25:21.573Z,33.97
2023-01-21T14:28:02.720Z,36.72
2023-01-21T14:30:39.512Z,35.80
2023-01-21T14:33:17.391Z,35.20
2023-01-21T14:35:58.636Z,39.97
2023-01-21T14:39:07.539Z,37.92
2023-01-21T14:42:02.888Z,39.95
2023-01-21T14:44:48.405Z,37.95
2023-01-21T14:47:29.271Z,45.20
2023-01-21T14:49:58.117Z,44.90
2023-01-21T14:52:34.004Z,41.55
2023-01-21T14:55:01.683Z,41.97
2023-01-21T14:57:34.378Z,45.92
2023-01-21T15:00:10.297Z,39.80
2023-01-21T15:02:42.679Z,38.80
2023-01-21T15:05:19.199Z,36.25
2023-01-21T15:07:49.362Z,41.90
2023-01-21T15:10:28.393Z,40.63
2023-01-21T15:13:02.844Z,42.17
2023-01-21T15:15:41.549Z,40.60
2023-01-21T15:18:33.998Z,39.90
2023-01-21T15:21:01.396Z,40.92
2023-01-21T15:23:31.034Z,40.25
2023-01-21T15:26:11.131Z,39.95
2023-01-21T15:28:45.588Z,39.58
2023-01-21T15:31:20.280Z,44.13
2023-01-21T15:33:51.662Z,43.85
2023-01-21T15:36:31.219Z,40.72
2023-01-21T15:39:22.946Z,44.47
2023-01-21T15:41:57.849Z,43.80
2023-01-21T15:44:54.778Z,42.97
2023-01-21T15:48:00.298Z,47.85
2023-01-21T15:50:51.324Z,46.53
2023-01-21T15:53:33.388Z,44.87
2023-01-21T15:56:42.687Z,45.85
2023-01-21T15:59:48.879Z,42.75
2023-01-21T16:02:34.897Z,41.42
2023-01-21T16:05:35.578Z,43.03
2023-01-21T16:08:19.542Z,49.10
2023-01-21T16:10:58.607Z,45.92
2023-01-21T16:13:42.616Z,46.70
2023-01-21T16:16:30.748Z,48.97
2023-01-21T16:19:11.230Z,47.72
2023-01-21T16:21:41.331Z,41.63
2023-01-21T16:24:17.204Z,47.55
2023-01-21T16:26:44.185Z,46.58
2023-01-21T16:29:13.217Z,43.38
2023-01-21T16:31:59.193Z,52.25
2023-01-21T16:34:37.917Z,48.28
2023-01-21T16:37:12.151Z,47.72
2023-01-21T16:39:40.029Z,47.05
2023-01-21T16:42:19.030Z,47.15
2023-01-21T16:44:45.721Z,48.30
2023-01-21T16:47:23.746Z,46.53
2023-01-21T16:49:50.833Z,47.35
2023-01-21T16:52:20.054Z,48.72
2023-01-21T16:54:52.147Z,45.20
2023-01-21T16:57:25.706Z,45.45
2023-01-21T16:59:55.761Z,46.95
2023-01-21T17:02:31.846Z,44.95
2023-01-21T17:05:04.948Z,50.03
2023-01-21T17:07:43.697Z,44.17
2023-01-21T17:10:24.351Z,43.45
2023-01-21T17:12:58.539Z,45.47
2023-01-21T17:15:43.300Z,45.17
2023-01-21T17:18:27.320Z,45.03
2023-01-21T17:21:10.311Z,47.35
2023-01-21T17:23:47.622Z,51.55
2023-01-21T17:26:18.936Z,51.67
2023-01-21T17:28:53.397Z,52.60
2023-01-21T17:31:30.720Z,48.90
2023-01-21T17:34:06.621Z,51.38
2023-01-21T17:36:39.148Z,48.90
2023-01-21T17:39:07.766Z,43.70
2023-01-21T17:41:42.488Z,50.20
2023-01-21T17:44:20.735Z,46.92
2023-01-21T17:46:52.377Z,46.75
2023-01-21T17:51:52.222Z,47.13
2023-01-21T17:54:25.795Z,55.60
2023-01-21T17:56:54.735Z,49.97
2023-01-21T17:59:40.982Z,49.42
2023-01-21T18:02:13.176Z,41.28
2023-01-21T18:04:40.246Z,43.88
2023-01-21T18:07:35.411Z,46.42
2023-01-21T18:10:03.002Z,42.33
2023-01-21T18:12:30.053Z,37.13
2023-01-21T18:14:56.724Z,41.38
2023-01-21T18:17:25.203Z,34.10
2023-01-21T18:19:52.076Z,34.67
2023-01-21T18:22:27.724Z,28.65
2023-01-21T18:24:55.038Z,32.03
2023-01-21T18:27:25.724Z,28.25
2023-01-21T18:29:53.677Z,33.35
2023-01-21T18:32:20.532Z,33.90
2023-01-21T18:34:47.196Z,32.85
2023-01-21T18:37:17.075Z,31.60
2023-01-21T18:39:43.774Z,30.45
2023-01-21T18:42:14.023Z,35.33
2023-01-21T18:44:41.159Z,30.90
2023-01-21T18:47:13.258Z,29.98
2023-01-21T18:49:40.182Z,30.23
2023-01-21T18:52:06.832Z,33.22
2023-01-21T18:54:33.585Z,31.50
2023-01-21T18:57:00.355Z,31.98
2023-01-21T18:59:27.565Z,35.25
2023-01-21T19:01:54.452Z,33.50
2023-01-21T19:04:21.413Z,34.90
2023-01-21T19:06:50.330Z,34.85
2023-01-21T19:09:24.867Z,27.42
2023-01-21T19:11:51.923Z,32.35
2023-01-21T19:14:18.695Z,32.33
2023-01-21T19:16:46.487Z,41.17
2023-01-21T19:19:16.031Z,38.33
2023-01-21T19:21:42.878Z,34.97
2023-01-21T19:24:12.141Z,33.78
2023-01-21T19:26:39.457Z,30.02
2023-01-21T19:29:14.445Z,31.95
2023-01-21T19:31:41.233Z,36.03
2023-01-21T19:34:11.036Z,34.85
2023-01-21T19:36:39.021Z,33.55
2023-01-21T19:39:17.567Z,36.85
2023-01-21T19:41:44.253Z,35.08
2023-01-21T19:44:10.900Z,41.78
2023-01-21T19:46:37.824Z,43.90
2023-01-21T19:49:12.635Z,41.13
2023-01-21T19:51:39.330Z,38.28
2023-01-21T19:54:06.000Z,39.63
2023-01-21T19:56:32.683Z,36.55
2023-01-21T19:58:59.510Z,42.65
2023-01-21T20:01:26.142Z,42.70
2023-01-21T20:04:00.148Z,43.22
2023-01-21T20:06:40.221Z,46.15
2023-01-21T20:09:07.278Z,49.08
2023-01-21T20:11:34.957Z,51.70
2023-01-21T20:14:01.627Z,49.38
2023-01-21T20:16:28.492Z,54.85
2023-01-21T20:18:56.165Z,53.45
2023-01-21T20:21:23.135Z,54.30
2023-01-21T20:23:49.789Z,60.40
2023-01-21T20:26:25.572Z,54.65
2023-01-21T20:28:54.408Z,57.85
2023-01-21T20:31:21.804Z,61.65
2023-01-21T20:33:48.612Z,55.53
2023-01-21T20:36:24.513Z,53.15
2023-01-21T20:38:52.588Z,60.97
2023-01-21T20:41:19.615Z,61.85
2023-01-21T20:43:46.590Z,68.30
2023-01-21T20:46:19.698Z,59.25
2023-01-21T20:48:46.701Z,62.10
2023-01-21T20:51:13.980Z,66.05
2023-01-21T20:53:40.756Z,65.47
2023-01-21T20:56:19.874Z,67.47
2023-01-21T20:58:49.800Z,58.63
2023-01-21T21:01:18.716Z,68.30
2023-01-21T21:03:45.838Z,64.88
2023-01-21T21:06:27.568Z,75.55
2023-01-21T21:08:55.164Z,69.88
2023-01-21T21:11:21.883Z,68.20
2023-01-21T21:13:51.622Z,69.35
2023-01-21T21:16:21.999Z,63.42
2023-01-21T21:18:48.836Z,75.78
2023-01-21T21:21:16.620Z,73.55
2023-01-21T21:23:46.538Z,64.65
2023-01-21T21:26:33.050Z,73.95
2023-01-21T21:29:00.072Z,71.20
2023-01-21T21:31:31.708Z,76.63
2023-01-21T21:33:58.526Z,75.03
2023-01-21T21:36:25.156Z,73.50
2023-01-21T21:38:55.218Z,76.15
2023-01-21T21:41:43.126Z,73.93
2023-01-21T21:44:10.456Z,73.75
2023-01-21T21:47:16.402Z,70.68
2023-01-21T21:49:43.302Z,67.10
2023-01-21T21:52:10.393Z,75.45
2023-01-21T21:54:37.134Z,74.28
2023-01-21T21:57:03.875Z,61.97
2023-01-21T21:59:30.574Z,72.13
2023-01-21T22:02:00.509Z,71.35
2023-01-21T22:04:27.217Z,73.57
2023-01-21T22:06:53.945Z,74.35
2023-01-21T22:09:20.630Z,65.63
2023-01-21T22:11:47.328Z,69.97
2023-01-21T22:14:14.036Z,66.13
2023-01-21T22:16:40.881Z,68.00
2023-01-21T22:19:07.548Z,73.00
2023-01-21T22:21:34.578Z,73.93
2023-01-21T22:24:03.239Z,65.88
2023-01-21T22:26:30.170Z,70.82
2023-01-21T22:28:57.388Z,71.63
2023-01-21T22:31:27.411Z,70.05
2023-01-21T22:33:54.838Z,69.07
2023-01-21T22:36:24.545Z,70.32
2023-01-21T22:38:51.840Z,68.20
2023-01-21T22:41:20.924Z,64.45
2023-01-21T22:43:48.688Z,70.35
2023-01-21T22:46:19.637Z,76.80
2023-01-21T22:48:46.812Z,63.88
2023-01-21T22:51:15.739Z,65.25
2023-01-21T22:53:43.875Z,69.07
2023-01-21T22:56:15.323Z,64.38
2023-01-21T22:58:42.177Z,70.28
2023-01-21T23:01:19.580Z,64.55
2023-01-21T23:03:46.232Z,63.28
2023-01-21T23:06:12.903Z,70.93
2023-01-21T23:08:39.530Z,59.28
2023-01-21T23:11:07.976Z,67.43
2023-01-21T23:13:35.567Z,62.20
2023-01-21T23:16:05.240Z,66.13
2023-01-21T23:18:31.957Z,63.90
2023-01-21T23:20:58.636Z,63.25
2023-01-21T23:23:25.322Z,62.78
2023-01-21T23:25:52.066Z,63.25
2023-01-21T23:28:18.793Z,67.88
2023-01-21T23:30:45.891Z,60.28
2023-01-21T23:33:12.829Z,61.42
2023-01-21T23:35:39.458Z,57.80
2023-01-21T23:38:06.083Z,67.63
2023-01-21T23:40:32.713Z,60.40
2023-01-21T23:42:59.388Z,60.25
2023-01-21T23:45:26.487Z,59.65
2023-01-21T23:47:54.365Z,56.85
2023-01-21T23:50:21.216Z,53.63
2023-01-21T23:52:47.888Z,59.05
2023-01-21T23:55:14.650Z,62.15
2023-01-21T23:57:41.621Z,60.53
